Time;durP1;ratioP1;P1;durP2;ratioP2;P2;SDS_P1;SDS_P2;PMS_P1;PMS_P2;Temp;Humidity;BMP_temperature;BMP_pressure;BME280_temperature;BME280_humidity;BME280_pressure;Samples;Min_cycle;Max_cycle;Signal;HPM_P1;HPM_P2
2022/11/18 00:00:01;;;;;;;17.17;15.48;;;;;;;8.61;80.32;93904.25;5075831;28;20212;-73
2022/11/18 00:02:30;;;;;;;17.48;15.57;;;;;;;8.58;80.85;93900.28;5075693;28;20208;-72
2022/11/18 00:04:57;;;;;;;19.08;16.98;;;;;;;8.66;81.34;93909.44;5075997;28;20197;-72
2022/11/18 00:07:26;;;;;;;18.80;16.90;;;;;;;8.68;81.75;93896.91;5076430;28;20231;-73
2022/11/18 00:09:55;;;;;;;17.98;16.15;;;;;;;8.71;81.72;93906.34;5075985;28;20189;-73
2022/11/18 00:15:09;;;;;;;18.05;16.25;;;;;;;8.72;81.76;93899.72;5075819;28;20220;-72
2022/11/18 00:17:37;;;;;;;17.15;15.35;;;;;;;8.76;82.23;93910.78;5082125;28;20313;-72
2022/11/18 00:20:05;;;;;;;16.98;15.23;;;;;;;8.78;82.02;93902.94;5078869;28;20208;-72
2022/11/18 00:22:33;;;;;;;17.30;15.48;;;;;;;8.79;81.54;93902.56;5078822;28;20208;-72
2022/11/18 00:25:01;;;;;;;17.05;15.25;;;;;;;8.82;81.78;93904.59;5097137;28;20184;-72
2022/11/18 00:27:29;;;;;;;16.85;15.13;;;;;;;8.84;81.98;93896.75;5096035;28;20541;-73
2022/11/18 00:30:00;;;;;;;16.23;14.52;;;;;;;8.82;81.61;93901.03;5079832;28;20204;-73
2022/11/18 00:32:28;;;;;;;16.10;14.50;;;;;;;8.74;81.29;93900.13;5079546;28;20283;-73
2022/11/18 00:34:57;;;;;;;16.55;14.23;;;;;;;8.70;81.06;93904.78;5097690;28;20184;-73
2022/11/18 00:37:25;;;;;;;15.57;13.93;;;;;;;8.63;80.68;93905.44;5096901;28;20181;-72
2022/11/18 00:39:54;;;;;;;15.18;13.63;;;;;;;8.62;80.80;93895.63;5081258;28;20204;-72
2022/11/18 00:45:10;;;;;;;14.05;12.65;;;;;;;8.55;80.31;93903.75;5085913;28;20253;-72
2022/11/18 00:47:38;;;;;;;15.25;13.48;;;;;;;8.53;80.50;93908.03;5085247;28;20231;-72
2022/11/18 00:50:09;;;;;;;16.13;14.43;;;;;;;8.49;80.50;93905.22;5085790;28;20196;-72
2022/11/18 00:52:38;;;;;;;14.82;13.40;;;;;;;8.47;80.83;93915.03;5087266;28;20196;-72
2022/11/18 00:55:06;;;;;;;14.60;13.15;;;;;;;8.44;80.86;93911.03;5104036;28;20203;-72
2022/11/18 00:57:33;;;;;;;13.77;12.48;;;;;;;8.42;80.88;93914.16;5085038;28;20205;-72
2022/11/18 01:00:01;;;;;;;14.02;12.57;;;;;;;8.39;80.48;93897.63;5101195;28;20181;-72
2022/11/18 01:02:29;;;;;;;13.63;12.30;;;;;;;8.44;81.54;93889.84;5101585;28;20199;-72
2022/11/18 01:04:59;;;;;;;13.57;12.27;;;;;;;8.54;81.71;93904.94;5083749;28;20192;-73
2022/11/18 01:07:29;;;;;;;14.13;12.73;;;;;;;8.55;82.12;93902.97;5083390;28;20216;-72
2022/11/18 01:09:57;;;;;;;13.95;12.48;;;;;;;8.55;82.07;93901.00;5083315;28;20211;-72
2022/11/18 01:15:11;;;;;;;13.43;12.02;;;;;;;8.44;80.94;93900.03;5082000;28;20513;-72
2022/11/18 01:17:39;;;;;;;13.57;12.18;;;;;;;8.38;80.55;93913.28;5078189;28;20606;-73
2022/11/18 01:20:08;;;;;;;12.85;11.48;;;;;;;8.27;79.63;93904.03;5078120;28;20208;-73
2022/11/18 01:22:37;;;;;;;12.80;11.50;;;;;;;8.22;79.89;93900.81;5078277;28;20197;-73
2022/11/18 01:25:06;;;;;;;12.98;11.77;;;;;;;8.21;80.02;93902.78;5078551;28;20215;-73
2022/11/18 01:27:35;;;;;;;13.50;12.13;;;;;;;8.21;80.38;93902.78;5077729;28;20213;-73
2022/11/18 01:30:03;;;;;;;12.02;10.85;;;;;;;8.23;80.81;93903.19;5077601;28;20203;-73
2022/11/18 01:32:32;;;;;;;11.68;10.63;;;;;;;8.28;81.25;93902.91;5077817;28;20204;-74
2022/11/18 01:35:00;;;;;;;12.20;11.00;;;;;;;8.34;81.57;93900.63;5079233;28;20529;-73
2022/11/18 01:37:28;;;;;;;12.30;11.20;;;;;;;8.33;81.20;93902.59;5081461;28;20200;-73
2022/11/18 01:39:57;;;;;;;12.27;11.07;;;;;;;8.33;81.43;93908.09;5080794;28;20205;-73
2022/11/18 01:42:25;;;;;;;11.60;10.40;;;;;;;8.32;81.36;93902.97;5080368;28;20188;-73
2022/11/18 01:45:09;;;;;;;12.75;11.45;;;;;;;8.31;80.89;93902.16;5080493;28;20212;-74
2022/11/18 01:47:42;;;;;;;12.60;11.30;;;;;;;8.28;81.00;93902.09;5081300;28;20217;-74
2022/11/18 01:50:10;;;;;;;12.75;11.57;;;;;;;8.27;80.70;93895.81;5080278;28;20628;-74
2022/11/18 01:52:38;;;;;;;12.63;11.45;;;;;;;8.26;81.00;93904.41;5080124;28;20212;-74
2022/11/18 01:55:14;;;;;;;12.40;11.30;;;;;;;8.14;80.44;93897.16;5080875;28;20208;-74
2022/11/18 01:57:42;;;;;;;11.60;10.50;;;;;;;8.01;80.22;93899.28;5078651;28;20197;-74
2022/11/18 02:00:12;;;;;;;11.23;10.00;;;;;;;8.02;80.59;93900.84;5079499;28;20189;-73
2022/11/18 02:02:38;;;;;;;11.60;10.40;;;;;;;8.02;80.75;93900.84;5079503;28;20227;-73
2022/11/18 02:05:08;;;;;;;11.55;10.45;;;;;;;8.03;81.36;93896.19;5077405;28;20196;-73
2022/11/18 02:07:38;;;;;;;11.20;10.13;;;;;;;8.07;81.54;93900.56;5076309;28;20224;-73
2022/11/18 02:10:07;;;;;;;12.18;11.02;;;;;;;8.12;81.75;93896.72;5076601;28;20201;-74
2022/11/18 02:12:37;;;;;;;13.05;11.75;;;;;;;8.19;81.87;93897.63;5076755;28;20211;-73
2022/11/18 02:15:07;;;;;;;12.90;11.68;;;;;;;8.24;82.22;93901.25;5078075;28;20193;-74
2022/11/18 02:17:43;;;;;;;13.07;11.77;;;;;;;8.29;82.21;93898.19;5077476;28;20244;-73
2022/11/18 02:20:30;;;;;;;12.82;11.32;;;;;;;8.29;82.02;93904.47;5077385;28;20261;-73
2022/11/18 02:23:32;;;;;;;15.40;13.85;;;;;;;8.27;82.08;93895.81;5075053;28;20617;-73
2022/11/18 02:26:25;;;;;;;14.23;12.82;;;;;;;8.30;82.05;93906.06;5077541;28;20197;-73
2022/11/18 02:29:04;;;;;;;14.15;12.90;;;;;;;8.34;82.32;93898.66;5062315;28;20251;-73
2022/11/18 02:31:33;;;;;;;14.50;13.10;;;;;;;8.36;82.48;93895.56;5078369;28;20193;-73
2022/11/18 02:34:04;;;;;;;14.55;13.05;;;;;;;8.36;82.51;93893.63;5076979;28;20189;-73
2022/11/18 02:36:38;;;;;;;14.55;11.90;;;;;;;8.33;82.16;93888.84;5077412;28;20212;-73
2022/11/18 02:39:08;;;;;;;12.77;11.48;;;;;;;8.31;82.29;93890.38;5077389;28;20188;-73
2022/11/18 02:41:36;;;;;;;15.00;13.60;;;;;;;8.29;82.34;93882.50;5076987;28;20203;-73
2022/11/18 02:44:07;;;;;;;14.43;12.93;;;;;;;8.33;82.91;93893.56;5076597;28;20196;-73
2022/11/18 02:46:37;;;;;;;14.80;13.23;;;;;;;8.35;82.93;93886.53;5076759;28;20192;-73
2022/11/18 02:49:07;;;;;;;14.45;13.02;;;;;;;8.37;83.13;93895.22;5078978;28;20227;-72
2022/11/18 02:51:34;;;;;;;15.07;13.45;;;;;;;8.37;83.07;93884.22;5082097;28;20200;-74
2022/11/18 02:54:03;;;;;;;13.38;12.02;;;;;;;8.30;82.16;93881.34;5083488;28;20196;-73
2022/11/18 02:56:30;;;;;;;13.50;12.20;;;;;;;8.27;82.20;93892.25;5083254;28;20236;-73
2022/11/18 02:58:58;;;;;;;13.82;12.43;;;;;;;8.24;81.91;93888.28;5083352;28;20251;-73
2022/11/18 03:01:29;;;;;;;13.55;12.23;;;;;;;8.20;81.71;93887.44;5084250;28;20178;-73
2022/11/18 03:03:57;;;;;;;15.60;13.63;;;;;;;8.12;81.47;93897.50;5083521;28;20181;-73
2022/11/18 03:06:29;;;;;;;16.75;15.05;;;;;;;8.02;81.21;93898.13;5076510;28;20205;-73
2022/11/18 03:09:03;;;;;;;17.70;15.88;;;;;;;7.94;81.08;93893.66;5074906;28;20282;-73
2022/11/18 03:11:32;;;;;;;18.38;16.63;;;;;;;7.86;80.99;93902.94;5076600;28;20180;-72
2022/11/18 03:14:09;;;;;;;16.40;14.77;;;;;;;7.86;81.45;93890.00;5074922;28;20204;-72
2022/11/18 03:16:40;;;;;;;15.63;14.02;;;;;;;7.87;82.13;93901.75;5075562;28;20189;-72
2022/11/18 03:19:10;;;;;;;16.27;14.65;;;;;;;7.91;82.16;93884.19;5075495;28;20236;-72
2022/11/18 03:21:40;;;;;;;16.67;14.95;;;;;;;7.93;82.60;93884.63;5075835;28;20548;-72
2022/11/18 03:24:10;;;;;;;17.08;15.50;;;;;;;7.96;83.08;93891.34;5075211;28;20196;-72
2022/11/18 03:26:39;;;;;;;17.33;15.60;;;;;;;8.01;83.23;93893.78;5075837;28;20196;-72
2022/11/18 03:29:10;;;;;;;19.10;17.30;;;;;;;7.95;82.75;93897.97;5074866;28;20581;-72
2022/11/18 03:31:42;;;;;;;20.23;18.25;;;;;;;7.92;83.10;93885.81;5075840;28;20221;-72
2022/11/18 03:34:11;;;;;;;20.08;18.08;;;;;;;7.98;83.41;93894.50;5075033;28;20602;-72
2022/11/18 03:36:41;;;;;;;18.90;17.00;;;;;;;8.01;83.83;93893.78;5075584;28;20605;-72
2022/11/18 03:39:11;;;;;;;19.52;17.73;;;;;;;8.07;83.62;93891.53;5074792;28;20204;-73
2022/11/18 03:41:44;;;;;;;18.27;16.45;;;;;;;8.13;83.73;93896.38;5074934;28;20530;-72
2022/11/18 03:44:14;;;;;;;19.63;17.77;;;;;;;8.15;83.84;93888.53;5074957;28;20211;-72
2022/11/18 03:46:45;;;;;;;19.95;17.88;;;;;;;8.20;83.92;93880.00;5076064;28;20198;-72
2022/11/18 03:49:16;;;;;;;20.98;18.88;;;;;;;8.23;83.77;93880.44;5074788;28;20216;-72
2022/11/18 03:51:46;;;;;;;21.35;19.25;;;;;;;8.25;84.10;93872.63;5075448;28;20199;-72
2022/11/18 03:54:17;;;;;;;26.13;21.80;;;;;;;8.23;83.40;93872.97;5074687;28;20250;-72
2022/11/18 03:56:49;;;;;;;33.80;27.55;;;;;;;8.20;83.55;93866.25;5074847;28;20205;-72
2022/11/18 03:59:18;;;;;;;30.38;25.65;;;;;;;8.19;83.84;93872.13;5075273;28;20192;-72
2022/11/18 04:01:52;;;;;;;27.67;24.75;;;;;;;8.20;83.95;93879.19;5074335;28;20200;-72
2022/11/18 04:04:19;;;;;;;27.10;22.00;;;;;;;8.22;83.56;93867.88;5074129;28;20192;-72
2022/11/18 04:06:50;;;;;;;23.83;21.23;;;;;;;8.19;83.55;93867.41;5074818;28;20197;-72
2022/11/18 04:09:20;;;;;;;25.10;21.98;;;;;;;8.19;83.92;93866.63;5074082;28;20648;-72
2022/11/18 04:12:04;;;;;;;26.30;22.15;;;;;;;8.15;83.58;93877.56;5074483;28;20204;-72
2022/11/18 04:14:54;;;;;;;23.38;20.88;;;;;;;8.13;83.88;93874.41;5075371;28;20203;-72
2022/11/18 04:17:42;;;;;;;26.30;21.92;;;;;;;8.13;83.82;93874.41;5082462;28;20228;-72
2022/11/18 04:20:30;;;;;;;26.45;22.45;;;;;;;8.13;84.11;93873.59;5098177;28;20204;-72
2022/11/18 04:23:11;;;;;;;30.90;24.08;;;;;;;8.11;84.21;93881.41;5099313;28;20202;-73
2022/11/18 04:25:57;;;;;;;34.35;24.55;;;;;;;8.07;84.54;93881.34;5081241;28;20196;-72
2022/11/18 04:28:24;;;;;;;33.47;25.30;;;;;;;8.07;84.93;93881.34;5081043;28;20228;-72
2022/11/18 04:30:51;;;;;;;32.60;24.42;;;;;;;8.05;85.21;93882.88;5081150;28;20226;-72
2022/11/18 04:33:22;;;;;;;31.30;23.95;;;;;;;8.05;85.71;93878.16;5098971;28;20184;-72
2022/11/18 04:35:49;;;;;;;30.95;23.65;;;;;;;8.03;85.35;93876.97;5064508;28;20200;-73
2022/11/18 04:38:17;;;;;;;31.88;23.88;;;;;;;8.06;85.55;93887.19;5081112;28;20193;-72
2022/11/18 04:40:46;;;;;;;24.92;21.85;;;;;;;8.02;85.56;93903.59;5080498;28;20624;-72
2022/11/18 04:43:13;;;;;;;26.85;21.88;;;;;;;8.03;85.65;93907.16;5080802;28;20250;-72
2022/11/18 04:45:40;;;;;;;27.42;22.33;;;;;;;8.03;85.48;93901.69;5081095;28;20266;-73
2022/11/18 04:48:07;;;;;;;35.90;27.42;;;;;;;7.99;85.61;93900.78;5081017;28;20223;-73
2022/11/18 04:50:36;;;;;;;30.88;26.05;;;;;;;7.98;85.80;93905.50;5098482;28;20188;-73
2022/11/18 04:53:03;;;;;;;35.83;29.02;;;;;;;7.96;86.08;93903.13;5080769;28;20212;-73
2022/11/18 04:55:31;;;;;;;33.72;27.00;;;;;;;7.96;86.01;93910.56;5081081;28;20207;-72
2022/11/18 04:57:58;;;;;;;36.45;26.58;;;;;;;7.99;86.09;93909.84;5081081;28;20201;-72
2022/11/18 05:00:27;;;;;;;32.92;26.45;;;;;;;8.00;85.79;93910.63;5099635;28;20203;-72
2022/11/18 05:02:53;;;;;;;32.25;26.52;;;;;;;7.96;86.16;93902.34;5081344;28;20196;-73
2022/11/18 05:05:20;;;;;;;31.50;25.40;;;;;;;7.97;85.66;93906.66;5081716;28;20196;-73
2022/11/18 05:07:48;;;;;;;30.02;25.20;;;;;;;7.95;85.69;93904.28;5098647;28;20624;-73
2022/11/18 05:10:15;;;;;;;29.35;25.65;;;;;;;7.94;85.60;93902.69;5081893;28;20258;-74
2022/11/18 05:12:51;;;;;;;27.58;24.60;;;;;;;7.97;86.07;93904.69;5081639;28;20197;-73
2022/11/18 05:15:20;;;;;;;28.98;24.17;;;;;;;7.98;85.80;93902.75;5099863;28;20195;-73
2022/11/18 05:17:47;;;;;;;26.55;23.65;;;;;;;8.00;86.01;93905.94;5099597;28;20244;-73
2022/11/18 05:20:14;;;;;;;26.40;22.20;;;;;;;7.98;85.94;93919.22;5082286;28;20204;-73
2022/11/18 05:22:41;;;;;;;23.98;21.55;;;;;;;7.94;86.21;93912.88;5080725;28;20208;-71
2022/11/18 05:25:11;;;;;;;26.05;23.15;;;;;;;7.95;86.31;93908.97;5097816;28;20189;-71
2022/11/18 05:27:38;;;;;;;25.08;21.13;;;;;;;7.95;86.43;93904.28;5097163;28;20241;-71
2022/11/18 05:30:06;;;;;;;23.77;21.27;;;;;;;7.96;86.43;93916.06;5080017;28;20216;-70
2022/11/18 05:32:33;;;;;;;25.05;21.83;;;;;;;7.95;86.55;93915.28;5079210;28;20625;-71
2022/11/18 05:35:00;;;;;;;24.35;21.80;;;;;;;7.92;86.68;93913.25;5079649;28;20199;-71
2022/11/18 05:37:28;;;;;;;24.13;21.30;;;;;;;7.88;86.58;93917.06;5079238;28;20207;-73
2022/11/18 05:39:55;;;;;;;25.02;22.45;;;;;;;7.83;86.66;93907.19;5080437;28;20200;-74
2022/11/18 05:45:08;;;;;;;26.08;23.38;;;;;;;7.79;87.14;93913.78;5096885;28;20192;-73
2022/11/18 05:47:58;;;;;;;25.27;22.77;;;;;;;7.80;87.12;93904.38;5078825;28;20208;-73
2022/11/18 05:50:22;;;;;;;25.08;22.67;;;;;;;7.82;87.50;93916.59;5079197;28;20197;-73
2022/11/18 05:52:49;;;;;;;25.02;22.52;;;;;;;7.79;87.04;93911.81;5078978;28;20200;-73
2022/11/18 05:55:17;;;;;;;26.08;23.27;;;;;;;7.79;87.20;93911.81;5079310;28;20204;-73
2022/11/18 05:57:45;;;;;;;26.40;23.65;;;;;;;7.83;87.42;93911.88;5096880;28;20192;-73
2022/11/18 06:00:13;;;;;;;25.90;23.30;;;;;;;7.79;87.12;93902.78;5079476;28;20204;-73
2022/11/18 06:02:41;;;;;;;26.27;23.52;;;;;;;7.81;87.44;93911.47;5096577;28;20204;-73
2022/11/18 06:05:09;;;;;;;26.77;23.98;;;;;;;7.84;87.64;93905.22;5078857;28;20204;-73
2022/11/18 06:07:39;;;;;;;26.35;23.23;;;;;;;7.88;87.73;93912.41;5096512;28;20245;-73
2022/11/18 06:10:07;;;;;;;27.05;24.15;;;;;;;7.90;87.26;93914.75;5078664;28;20273;-73
2022/11/18 06:12:55;;;;;;;26.80;23.92;;;;;;;7.92;87.62;93910.50;5097789;28;20189;-73
2022/11/18 06:15:24;;;;;;;26.13;23.38;;;;;;;7.92;87.61;93907.75;5079171;28;20216;-74
2022/11/18 06:17:55;;;;;;;26.48;23.70;;;;;;;7.93;87.52;93908.56;5075083;28;20252;-71
2022/11/18 06:20:22;;;;;;;26.60;23.77;;;;;;;7.96;87.73;93916.84;5075846;28;20189;-70
2022/11/18 06:22:50;;;;;;;26.75;23.88;;;;;;;7.99;87.89;93909.84;5076169;28;20181;-70
2022/11/18 06:25:17;;;;;;;27.08;24.17;;;;;;;8.00;87.57;93896.91;5076252;28;20200;-72
2022/11/18 06:27:44;;;;;;;24.20;21.60;;;;;;;8.02;87.92;93902.81;5075648;28;20205;-71
2022/11/18 06:30:14;;;;;;;24.80;21.35;;;;;;;8.00;87.82;93896.91;5075312;28;20217;-71
2022/11/18 06:32:41;;;;;;;21.67;19.48;;;;;;;8.02;88.44;93908.31;5075982;28;20205;-71
2022/11/18 06:35:08;;;;;;;21.08;18.80;;;;;;;8.05;88.48;93897.38;5075643;28;20193;-70
2022/11/18 06:37:35;;;;;;;21.15;18.95;;;;;;;8.08;88.77;93893.13;5075158;28;20601;-69
2022/11/18 06:40:02;;;;;;;20.90;18.73;;;;;;;8.09;88.91;93900.97;5074551;28;20200;-69
2022/11/18 06:45:15;;;;;;;18.33;16.42;;;;;;;8.10;89.34;93897.09;5076575;28;20708;-69
2022/11/18 06:47:43;;;;;;;18.63;16.73;;;;;;;8.13;89.34;93899.13;5076857;28;20201;-69
2022/11/18 06:50:10;;;;;;;18.63;16.40;;;;;;;8.18;89.24;93892.53;5075687;28;20221;-69
2022/11/18 06:52:37;;;;;;;20.02;17.20;;;;;;;8.22;89.59;93898.06;5075742;28;20197;-69
2022/11/18 06:55:06;;;;;;;18.83;16.90;;;;;;;8.25;89.58;93898.13;5075984;28;20227;-70
2022/11/18 06:57:33;;;;;;;19.42;17.33;;;;;;;8.32;89.44;93908.47;5075539;28;20192;-70
2022/11/18 06:59:59;;;;;;;21.10;17.42;;;;;;;8.32;89.55;93901.00;5075005;28;20197;-70
2022/11/18 07:02:27;;;;;;;20.70;17.70;;;;;;;8.33;89.58;93908.09;5075683;28;20262;-71
2022/11/18 07:04:54;;;;;;;21.40;19.10;;;;;;;8.36;89.51;93904.59;5076117;28;20262;-71
2022/11/18 07:07:24;;;;;;;19.73;17.65;;;;;;;8.43;89.84;93903.97;5075777;28;20181;-71
2022/11/18 07:09:51;;;;;;;20.63;17.92;;;;;;;8.42;89.83;93905.94;5074864;28;20304;-71
2022/11/18 07:12:18;;;;;;;21.08;18.77;;;;;;;8.41;89.86;93896.06;5074580;28;20201;-69
2022/11/18 07:14:45;;;;;;;19.73;17.55;;;;;;;8.44;89.96;93903.59;5074506;28;20201;-69
2022/11/18 07:17:12;;;;;;;20.58;18.42;;;;;;;8.43;89.90;93882.78;5077578;28;20189;-69
2022/11/18 07:19:40;;;;;;;21.08;18.70;;;;;;;8.47;89.80;93879.28;5077843;28;20655;-69
2022/11/18 07:22:07;;;;;;;22.95;20.48;;;;;;;8.49;90.31;93876.94;5076759;28;20433;-71
2022/11/18 07:24:34;;;;;;;23.73;20.33;;;;;;;8.53;90.48;93880.53;5077918;28;20691;-70
2022/11/18 07:27:01;;;;;;;26.13;21.48;;;;;;;8.60;90.51;93872.41;5078101;28;20200;-69
2022/11/18 07:29:28;;;;;;;23.75;20.90;;;;;;;8.63;90.45;93880.72;5076973;28;20505;-70
2022/11/18 07:31:55;;;;;;;22.73;19.98;;;;;;;8.66;90.49;93887.44;5078043;28;20210;-70
2022/11/18 07:34:22;;;;;;;21.42;18.38;;;;;;;8.63;91.13;93866.19;5077607;28;20188;-70
2022/11/18 07:36:50;;;;;;;27.83;21.85;;;;;;;8.62;91.27;93872.84;5077592;28;20199;-70
2022/11/18 07:39:17;;;;;;;26.02;22.08;;;;;;;8.65;91.30;93866.63;5077546;28;20211;-71
2022/11/18 07:41:44;;;;;;;24.83;21.95;;;;;;;8.65;91.05;93872.13;5077835;28;20200;-71
2022/11/18 07:44:11;;;;;;;24.42;20.75;;;;;;;8.68;91.64;93877.66;5077371;28;20483;-70
2022/11/18 07:46:38;;;;;;;25.50;21.38;;;;;;;8.72;91.43;93883.22;5078186;28;20193;-69
2022/11/18 07:49:07;;;;;;;24.42;20.88;;;;;;;8.83;91.64;93883.38;5077604;28;20295;-70
2022/11/18 07:51:35;;;;;;;25.13;20.40;;;;;;;8.89;91.40;93881.88;5079862;28;20230;-71
2022/11/18 07:54:06;;;;;;;28.48;22.00;;;;;;;8.97;91.28;93869.84;5099569;28;20188;-71
2022/11/18 07:56:34;;;;;;;31.83;22.55;;;;;;;9.08;91.33;93870.78;5099268;28;20192;-71
2022/11/18 07:59:01;;;;;;;26.13;21.05;;;;;;;9.16;90.80;93897.22;5098599;28;20535;-71
2022/11/18 08:01:33;;;;;;;26.67;20.35;;;;;;;9.19;90.51;93886.59;5099392;28;20177;-71
2022/11/18 08:04:06;;;;;;;25.45;19.33;;;;;;;9.23;90.30;93909.47;5099696;28;20192;-71
2022/11/18 08:06:35;;;;;;;24.40;18.95;;;;;;;9.24;90.09;93909.09;5099191;28;20209;-71
2022/11/18 08:09:25;;;;;;;22.95;19.30;;;;;;;9.28;90.08;93912.69;5081862;28;20227;-72
2022/11/18 08:11:52;;;;;;;26.30;20.02;;;;;;;9.28;89.86;93903.66;5079219;28;20204;-71
2022/11/18 08:14:23;;;;;;;26.48;20.92;;;;;;;9.31;89.50;93909.19;5081299;28;20541;-71
2022/11/18 08:16:51;;;;;;;29.65;23.45;;;;;;;9.27;89.29;93900.09;5081852;28;20214;-71
2022/11/18 08:19:18;;;;;;;27.23;22.70;;;;;;;9.28;89.46;93893.44;5078156;28;20251;-71
2022/11/18 08:21:47;;;;;;;27.75;22.80;;;;;;;9.30;89.36;93888.34;5078119;28;20219;-72
2022/11/18 08:24:20;;;;;;;29.02;23.42;;;;;;;9.27;89.35;93897.34;5077689;28;20209;-72
2022/11/18 08:26:49;;;;;;;28.00;23.15;;;;;;;9.30;89.56;93879.31;5078167;28;20197;-70
2022/11/18 08:29:18;;;;;;;29.75;24.70;;;;;;;9.33;89.52;93881.28;5077653;28;20519;-71
2022/11/18 08:31:45;;;;;;;29.00;23.88;;;;;;;9.32;89.24;93885.22;5078100;28;20207;-72
2022/11/18 08:34:13;;;;;;;34.40;25.75;;;;;;;9.36;89.61;93875.84;5077522;28;20201;-71
2022/11/18 08:36:43;;;;;;;38.22;29.38;;;;;;;9.31;89.45;93867.91;5078331;28;20224;-71
2022/11/18 08:39:14;;;;;;;34.40;26.55;;;;;;;9.34;89.80;93856.16;5078185;28;20207;-71
2022/11/18 08:41:49;;;;;;;35.95;26.33;;;;;;;9.36;89.83;93856.56;5077826;28;20200;-72
2022/11/18 08:44:17;;;;;;;33.28;25.52;;;;;;;9.44;90.21;93851.97;5076936;28;20197;-72
2022/11/18 08:46:45;;;;;;;36.05;26.55;;;;;;;9.53;89.81;93852.47;5077865;28;20235;-72
2022/11/18 08:49:12;;;;;;;35.70;26.95;;;;;;;9.56;89.98;93848.97;5077296;28;20221;-70
2022/11/18 08:51:41;;;;;;;33.33;25.92;;;;;;;9.59;89.92;93826.19;5077413;28;20197;-71
2022/11/18 08:54:10;;;;;;;48.08;33.42;;;;;;;9.60;89.65;93840.75;5077033;28;20205;-71
2022/11/18 08:56:39;;;;;;;36.65;29.85;;;;;;;9.68;90.03;93817.63;5076801;28;20193;-71
2022/11/18 08:59:15;;;;;;;40.92;28.70;;;;;;;9.73;89.89;93814.53;5060640;28;20205;-71
2022/11/18 09:01:42;;;;;;;38.35;28.33;;;;;;;9.79;90.43;93806.72;5076831;28;20219;-71
2022/11/18 09:04:09;;;;;;;39.20;27.15;;;;;;;9.84;89.77;93800.84;5076041;28;20208;-73
2022/11/18 09:06:37;;;;;;;35.97;26.50;;;;;;;9.87;89.48;93797.34;5077256;28;20221;-72
2022/11/18 09:09:04;;;;;;;35.70;26.30;;;;;;;9.91;89.35;93808.41;5077869;28;20205;-72
2022/11/18 09:11:30;;;;;;;36.13;25.30;;;;;;;9.99;89.33;93799.84;5076778;28;20197;-70
2022/11/18 09:13:59;;;;;;;34.72;26.00;;;;;;;10.09;89.28;93809.34;5078087;28;20208;-71
2022/11/18 09:16:29;;;;;;;34.03;25.08;;;;;;;10.25;89.03;93809.91;5077949;28;20196;-72
2022/11/18 09:18:56;;;;;;;31.42;24.77;;;;;;;10.46;89.01;93800.25;5076581;28;20243;-71
2022/11/18 09:21:24;;;;;;;30.65;24.10;;;;;;;10.74;88.50;93780.31;5077705;28;20205;-71
2022/11/18 09:23:51;;;;;;;29.05;20.77;;;;;;;11.04;87.97;93791.13;5076840;28;20195;-71
2022/11/18 09:26:21;;;;;;;27.65;20.58;;;;;;;11.32;87.12;93784.94;5077243;28;20193;-71
2022/11/18 09:28:48;;;;;;;29.92;20.58;;;;;;;11.61;85.41;93777.53;5077700;28;20224;-71
2022/11/18 09:31:17;;;;;;;27.45;21.20;;;;;;;11.86;84.21;93769.31;5077482;28;20286;-71
2022/11/18 09:33:45;;;;;;;26.70;20.42;;;;;;;12.08;82.75;93781.19;5077542;28;20185;-71
2022/11/18 09:36:14;;;;;;;27.33;20.02;;;;;;;12.41;82.07;93768.16;5076394;28;20204;-71
2022/11/18 09:38:41;;;;;;;27.63;18.88;;;;;;;12.68;80.15;93741.66;5076750;28;20197;-71
2022/11/18 09:41:31;;;;;;;19.80;15.45;;;;;;;12.64;77.80;93743.66;5076015;28;20205;-71
2022/11/18 09:44:08;;;;;;;17.63;14.02;;;;;;;12.96;77.99;93731.69;5073800;28;20274;-71
2022/11/18 09:46:46;;;;;;;20.25;15.05;;;;;;;12.99;75.63;93722.59;5076322;28;20196;-71
2022/11/18 09:49:16;;;;;;;14.38;12.82;;;;;;;13.16;76.62;93721.75;5076218;28;20212;-70
2022/11/18 09:51:44;;;;;;;22.10;15.25;;;;;;;13.51;75.72;93714.50;5075832;28;20247;-70
2022/11/18 09:54:13;;;;;;;19.23;16.10;;;;;;;13.56;71.48;93716.03;5076251;28;20219;-70
2022/11/18 09:56:41;;;;;;;22.52;16.17;;;;;;;13.45;73.35;93716.09;5075796;28;20209;-72
2022/11/18 09:59:11;;;;;;;23.75;16.70;;;;;;;13.64;73.09;93700.94;5076782;28;20208;-71
2022/11/18 10:01:38;;;;;;;23.70;19.85;;;;;;;13.39;72.22;93699.09;5075131;28;20224;-71
2022/11/18 10:04:06;;;;;;;25.45;20.92;;;;;;;13.18;73.72;93704.72;5076572;28;20201;-69
2022/11/18 10:06:34;;;;;;;28.20;22.58;;;;;;;13.45;74.33;93703.03;5076626;28;20197;-69
2022/11/18 10:09:13;;;;;;;27.92;22.75;;;;;;;13.80;71.64;93701.25;5076687;28;20181;-69
2022/11/18 10:11:42;;;;;;;29.75;22.92;;;;;;;13.86;71.92;93707.13;5076476;28;20192;-69
2022/11/18 10:14:27;;;;;;;30.58;22.33;;;;;;;14.25;71.75;93706.03;5076610;28;20193;-70
2022/11/18 10:17:09;;;;;;;29.45;23.95;;;;;;;14.54;70.59;93714.94;5075623;28;20196;-70
2022/11/18 10:19:41;;;;;;;26.35;20.73;;;;;;;14.53;69.05;93694.72;5058993;28;20196;-71
2022/11/18 10:22:22;;;;;;;25.35;19.83;;;;;;;14.72;68.82;93693.34;5075600;28;20274;-69
2022/11/18 10:24:51;;;;;;;26.90;21.15;;;;;;;14.71;67.75;93693.75;5058707;28;20223;-69
2022/11/18 10:27:20;;;;;;;30.10;23.33;;;;;;;14.72;67.35;93676.69;5058591;28;20216;-70
2022/11/18 10:29:54;;;;;;;29.55;25.50;;;;;;;14.79;67.49;93679.38;5058459;28;20221;-70
2022/11/18 10:32:22;;;;;;;30.92;24.63;;;;;;;14.79;66.93;93664.72;5058492;28;20200;-70
2022/11/18 10:34:51;;;;;;;37.42;29.30;;;;;;;14.77;67.00;93670.66;5076078;28;20245;-69
2022/11/18 10:37:30;;;;;;;34.35;27.60;;;;;;;14.84;67.21;93664.25;5076182;28;20201;-69
2022/11/18 10:40:00;;;;;;;40.25;32.08;;;;;;;14.78;66.93;93654.78;5058390;28;20203;-69
2022/11/18 10:42:30;;;;;;;35.20;26.63;;;;;;;14.79;67.42;93654.41;5076002;28;20284;-69
2022/11/18 10:45:19;;;;;;;46.38;38.92;;;;;;;14.90;67.47;93654.28;5075867;28;20204;-69
2022/11/18 10:47:57;;;;;;;39.97;35.55;;;;;;;14.91;68.10;93653.06;5058489;28;20201;-69
2022/11/18 10:50:35;;;;;;;33.55;25.98;;;;;;;14.92;67.02;93646.31;5058085;28;20212;-69
2022/11/18 10:53:35;;;;;;;29.85;24.33;;;;;;;14.76;66.65;93637.78;5058797;28;20253;-69
2022/11/18 10:56:06;;;;;;;24.55;19.48;;;;;;;14.63;65.28;93623.66;5043441;28;20193;-69
2022/11/18 10:58:38;;;;;;;25.48;19.73;;;;;;;14.39;66.16;93631.81;5058210;28;20192;-69
2022/11/18 11:01:24;;;;;;;29.95;25.95;;;;;;;14.32;66.71;93637.44;5075398;28;20193;-70
2022/11/18 11:04:03;;;;;;;43.65;39.45;;;;;;;14.30;67.44;93639.81;5057782;28;20196;-69
2022/11/18 11:06:53;;;;;;;49.95;44.72;;;;;;;14.29;67.67;93632.72;5058035;28;20201;-69
2022/11/18 11:09:31;;;;;;;33.08;29.52;;;;;;;14.32;68.07;93634.66;5057815;28;20209;-70
2022/11/18 11:12:02;;;;;;;32.50;29.08;;;;;;;14.35;68.18;93616.41;5075416;28;20264;-70
2022/11/18 11:14:33;;;;;;;38.95;28.67;;;;;;;14.40;68.47;93619.50;5057584;28;20200;-71
2022/11/18 11:17:05;;;;;;;35.00;27.25;;;;;;;14.43;69.43;93620.69;5057989;28;20192;-70
2022/11/18 11:19:41;;;;;;;40.13;33.65;;;;;;;14.48;69.55;93609.13;5057330;28;20216;-70
2022/11/18 11:22:12;;;;;;;40.10;31.00;;;;;;;14.51;69.53;93605.56;5074847;28;20246;-70
2022/11/18 11:24:45;;;;;;;37.92;28.38;;;;;;;14.59;69.76;93600.72;5055948;28;20212;-69
2022/11/18 11:27:39;;;;;;;32.78;25.33;;;;;;;14.64;69.64;93589.19;5057516;28;20212;-70
2022/11/18 11:30:18;;;;;;;29.83;22.48;;;;;;;14.63;69.04;93593.94;5074319;28;20223;-70
2022/11/18 11:33:31;;;;;;;24.33;19.70;;;;;;;14.60;67.92;93585.66;5057698;28;20200;-70
2022/11/18 11:36:14;;;;;;;24.40;17.95;;;;;;;14.59;67.77;93576.53;5074846;28;20212;-71
2022/11/18 11:38:53;;;;;;;25.17;18.25;;;;;;;14.60;67.53;93589.22;5042089;28;20219;-70
2022/11/18 11:41:24;;;;;;;23.20;20.27;;;;;;;14.62;67.89;93602.66;5075251;28;20195;-70
2022/11/18 11:44:09;;;;;;;22.90;19.02;;;;;;;14.59;67.65;93592.38;5074644;28;20197;-71
2022/11/18 11:47:45;;;;;;;37.70;29.77;;;;;;;14.51;67.98;93591.69;5074414;28;20185;-72
2022/11/18 11:49:50;;;;;;;33.55;26.30;;;;;;;14.48;68.57;93580.59;5074094;28;20209;-70
2022/11/18 11:52:25;;;;;;;28.33;23.23;;;;;;;14.47;68.50;93587.34;5041227;28;20220;-71
2022/11/18 11:55:01;;;;;;;27.52;22.73;;;;;;;14.44;68.94;93575.88;5057492;28;20200;-71